createdAt,value
2022-09-22T00:01:13.737Z,5.20
2022-09-22T00:06:11.309Z,6.90
2022-09-22T00:08:41.084Z,5.70
2022-09-22T00:11:12.436Z,5.70
2022-09-22T00:13:39.443Z,4.60
2022-09-22T00:16:10.483Z,5.30
2022-09-22T00:18:38.570Z,4.50
2022-09-22T00:21:07.564Z,4.90
2022-09-22T00:23:34.516Z,5.40
2022-09-22T00:26:07.716Z,4.20
2022-09-22T00:28:34.667Z,6.10
2022-09-22T00:31:10.710Z,3.70
2022-09-22T00:33:40.200Z,5.00
2022-09-22T00:36:06.991Z,3.80
2022-09-22T00:38:33.942Z,4.50
2022-09-22T00:41:01.413Z,4.20
2022-09-22T00:43:29.897Z,4.50
2022-09-22T00:46:00.539Z,5.80
2022-09-22T00:48:28.414Z,4.20
2022-09-22T00:50:55.775Z,6.90
2022-09-22T00:53:22.729Z,4.70
2022-09-22T00:55:56.030Z,5.00
2022-09-22T00:58:28.826Z,6.40
2022-09-22T01:00:57.548Z,6.50
2022-09-22T01:03:29.699Z,5.70
2022-09-22T01:05:58.388Z,5.50
2022-09-22T01:08:25.861Z,5.80
2022-09-22T01:10:54.246Z,4.80
2022-09-22T01:13:25.865Z,5.90
2022-09-22T01:16:29.585Z,5.70
2022-09-22T01:19:22.799Z,5.00
2022-09-22T01:21:53.098Z,5.50
2022-09-22T01:24:26.532Z,6.90
2022-09-22T01:27:06.897Z,6.20
2022-09-22T01:30:04.890Z,6.30
2022-09-22T01:32:34.703Z,5.60
2022-09-22T01:35:06.471Z,6.60
2022-09-22T01:37:43.767Z,6.00
2022-09-22T01:40:19.622Z,5.30
2022-09-22T01:42:52.600Z,6.90
2022-09-22T01:45:21.848Z,8.00
2022-09-22T01:47:54.666Z,5.60
2022-09-22T01:50:29.760Z,5.70
2022-09-22T01:52:58.862Z,6.10
2022-09-22T01:55:35.395Z,7.80
2022-09-22T01:58:05.871Z,6.40
2022-09-22T02:00:35.278Z,5.60
2022-09-22T02:03:10.730Z,6.60
2022-09-22T02:05:45.310Z,5.70
2022-09-22T02:08:22.162Z,6.50
2022-09-22T02:10:48.893Z,8.50
2022-09-22T02:13:15.850Z,7.00
2022-09-22T02:16:01.983Z,6.80
2022-09-22T02:18:34.243Z,6.70
2022-09-22T02:21:01.500Z,7.20
2022-09-22T02:23:29.076Z,5.00
2022-09-22T02:25:56.427Z,5.10
2022-09-22T02:28:23.588Z,9.80
2022-09-22T02:31:17.650Z,7.20
2022-09-22T02:33:39.409Z,7.30
2022-09-22T02:36:32.471Z,5.40
2022-09-22T02:39:01.572Z,6.00
2022-09-22T02:41:50.027Z,7.20
2022-09-22T02:44:24.077Z,6.90
2022-09-22T02:47:01.385Z,5.40
2022-09-22T02:49:29.612Z,7.10
2022-09-22T02:51:56.579Z,7.60
2022-09-22T02:54:25.672Z,5.60
2022-09-22T02:56:53.945Z,5.80
2022-09-22T02:59:20.689Z,6.90
2022-09-22T03:01:48.320Z,7.10
2022-09-22T03:04:15.713Z,7.50
2022-09-22T03:06:42.556Z,7.00
2022-09-22T03:09:10.222Z,7.70
2022-09-22T03:11:37.680Z,5.50
2022-09-22T03:14:04.319Z,7.70
2022-09-22T03:16:31.471Z,6.20
2022-09-22T03:18:58.673Z,6.90
2022-09-22T03:21:26.700Z,5.50
2022-09-22T03:23:53.954Z,10.90
2022-09-22T03:26:21.414Z,10.80
2022-09-22T03:28:48.361Z,5.60
2022-09-22T03:31:15.453Z,6.80
2022-09-22T03:33:42.778Z,9.40
2022-09-22T03:36:09.832Z,6.20
2022-09-22T03:38:36.686Z,7.00
2022-09-22T03:41:04.655Z,11.90
2022-09-22T03:43:31.607Z,6.90
2022-09-22T03:46:00.190Z,7.20
2022-09-22T03:48:28.575Z,4.80
2022-09-22T03:50:55.822Z,5.00
2022-09-22T03:53:23.228Z,4.40
2022-09-22T03:55:50.648Z,7.00
2022-09-22T03:58:20.257Z,7.40
2022-09-22T04:00:48.435Z,7.00
2022-09-22T04:03:16.918Z,4.30
2022-09-22T04:05:52.363Z,4.90
2022-09-22T04:08:19.619Z,5.10
2022-09-22T04:10:46.463Z,5.30
2022-09-22T04:13:15.149Z,6.10
2022-09-22T04:15:42.307Z,4.80
2022-09-22T04:18:09.869Z,6.00
2022-09-22T04:20:38.840Z,5.40
2022-09-22T04:23:05.658Z,4.00
2022-09-22T04:25:32.351Z,7.10
2022-09-22T04:28:02.302Z,6.20
2022-09-22T04:30:33.171Z,3.80
2022-09-22T04:33:00.666Z,8.30
2022-09-22T04:35:27.921Z,5.20
2022-09-22T04:37:55.552Z,8.30
2022-09-22T04:40:22.873Z,8.30
2022-09-22T04:42:50.809Z,7.50
2022-09-22T04:45:18.371Z,8.40
2022-09-22T04:47:46.853Z,7.70
2022-09-22T04:50:14.117Z,7.70
2022-09-22T04:52:46.817Z,7.30
2022-09-22T04:55:15.295Z,7.00
2022-09-22T04:57:56.482Z,7.80
2022-09-22T05:00:25.954Z,7.60
2022-09-22T05:02:53.201Z,8.90
2022-09-22T05:05:20.108Z,8.80
2022-09-22T05:07:48.513Z,7.40
2022-09-22T05:10:19.501Z,10.60
2022-09-22T05:12:46.196Z,10.10
2022-09-22T05:15:16.535Z,7.70
2022-09-22T05:17:49.221Z,6.10
2022-09-22T05:20:17.715Z,6.70
2022-09-22T05:22:44.665Z,9.30
2022-09-22T05:25:13.573Z,21.90
2022-09-22T05:27:47.905Z,43.90
2022-09-22T05:30:16.696Z,31.30
2022-09-22T05:32:45.700Z,23.30
2022-09-22T05:35:13.889Z,14.90
2022-09-22T05:37:42.481Z,6.20
2022-09-22T05:40:10.487Z,16.50
2022-09-22T05:42:51.237Z,8.00
2022-09-22T05:45:19.933Z,5.30
2022-09-22T05:47:46.711Z,7.40
2022-09-22T05:50:14.831Z,6.30
2022-09-22T05:52:41.782Z,5.70
2022-09-22T05:55:11.540Z,5.70
2022-09-22T05:57:39.242Z,7.00
2022-09-22T06:00:07.488Z,6.80
2022-09-22T06:02:36.205Z,5.60
2022-09-22T06:05:03.455Z,5.30
2022-09-22T06:07:33.075Z,5.30
2022-09-22T06:10:00.347Z,16.40
2022-09-22T06:12:27.703Z,14.80
2022-09-22T06:14:56.503Z,20.00
2022-09-22T06:17:24.369Z,14.70
2022-09-22T06:19:51.729Z,22.10
2022-09-22T06:22:19.085Z,13.10
2022-09-22T06:24:46.233Z,9.10
2022-09-22T06:27:14.409Z,19.70
2022-09-22T06:29:41.054Z,20.60
2022-09-22T06:32:09.380Z,12.70
2022-09-22T06:34:38.040Z,7.20
2022-09-22T06:37:08.243Z,9.40
2022-09-22T06:39:37.829Z,11.60
2022-09-22T06:44:33.281Z,5.60
2022-09-22T06:47:04.851Z,11.50
2022-09-22T06:49:31.682Z,7.30
2022-09-22T06:51:58.423Z,11.60
2022-09-22T06:54:25.990Z,19.40
2022-09-22T06:56:53.548Z,15.20
2022-09-22T06:59:20.371Z,24.60
2022-09-22T07:01:47.629Z,239.90
2022-09-22T07:04:14.718Z,197.50
2022-09-22T07:06:42.900Z,161.30
2022-09-22T07:09:11.999Z,80.00
2022-09-22T07:11:40.682Z,34.00
2022-09-22T07:14:08.127Z,113.30
2022-09-22T07:16:35.752Z,38.30
2022-09-22T07:19:08.723Z,68.50
2022-09-22T07:21:37.314Z,54.80
2022-09-22T07:24:07.707Z,51.10
2022-09-22T07:29:08.057Z,26.20
2022-09-22T07:31:36.334Z,14.70
2022-09-22T07:34:03.358Z,17.90
2022-09-22T07:36:31.947Z,11.40
2022-09-22T07:39:07.158Z,9.60
2022-09-22T07:41:42.547Z,5.90
2022-09-22T07:44:30.397Z,4.50
2022-09-22T07:46:58.264Z,6.40
2022-09-22T07:49:25.942Z,4.90
2022-09-22T07:51:56.986Z,6.90
2022-09-22T07:54:24.964Z,5.80
2022-09-22T07:56:57.545Z,7.90
2022-09-22T07:59:24.597Z,5.40
2022-09-22T08:01:51.766Z,5.30
2022-09-22T08:04:22.263Z,3.00
2022-09-22T08:06:55.512Z,13.20
2022-09-22T08:09:23.980Z,8.40
2022-09-22T08:11:52.467Z,8.80
2022-09-22T08:14:21.975Z,3.40
2022-09-22T08:16:51.057Z,6.60
2022-09-22T08:19:17.936Z,4.10
2022-09-22T08:21:49.178Z,3.50
2022-09-22T08:24:21.755Z,5.70
2022-09-22T08:26:52.776Z,6.30
2022-09-22T08:29:20.641Z,10.10
2022-09-22T08:31:48.806Z,5.20
2022-09-22T08:34:16.709Z,5.80
2022-09-22T08:36:46.682Z,4.60
2022-09-22T08:39:14.240Z,2.90
2022-09-22T08:41:59.619Z,1.90
2022-09-22T08:44:29.391Z,4.00
2022-09-22T08:49:56.951Z,4.20
2022-09-22T08:52:38.244Z,3.80
2022-09-22T08:55:10.920Z,3.70
2022-09-22T08:57:56.463Z,3.20
2022-09-22T09:00:24.092Z,2.80
2022-09-22T09:03:00.247Z,2.50
2022-09-22T09:05:40.879Z,1.90
2022-09-22T09:08:19.399Z,5.40
2022-09-22T09:10:56.896Z,7.10
2022-09-22T09:13:31.936Z,7.40
2022-09-22T09:16:19.272Z,6.40
2022-09-22T09:18:56.551Z,4.20
2022-09-22T09:21:23.498Z,3.10
2022-09-22T09:26:40.950Z,4.80
2022-09-22T09:29:07.960Z,3.00
2022-09-22T09:31:41.098Z,2.60
2022-09-22T09:34:11.684Z,2.70
2022-09-22T09:36:40.642Z,4.80
2022-09-22T09:39:17.913Z,4.10
2022-09-22T09:41:49.573Z,2.40
2022-09-22T09:44:20.463Z,5.90
2022-09-22T09:47:05.288Z,1.90
2022-09-22T09:49:32.955Z,2.90
2022-09-22T09:52:01.235Z,3.80
2022-09-22T09:54:28.371Z,3.40
2022-09-22T09:57:10.399Z,3.20
2022-09-22T09:59:58.030Z,2.60
2022-09-22T10:02:29.278Z,7.10
2022-09-22T10:05:01.135Z,4.10
2022-09-22T10:10:23.473Z,4.40
2022-09-22T10:12:52.172Z,2.80
2022-09-22T10:15:24.255Z,2.80
2022-09-22T10:17:53.042Z,2.40
2022-09-22T10:20:25.964Z,14.70
2022-09-22T10:22:54.511Z,7.20
2022-09-22T10:25:25.353Z,8.60
2022-09-22T10:28:15.234Z,8.20
2022-09-22T10:30:44.677Z,5.90
2022-09-22T10:33:19.819Z,3.50
2022-09-22T10:35:54.094Z,3.50
2022-09-22T10:38:24.732Z,2.70
2022-09-22T10:41:07.404Z,3.90
2022-09-22T10:43:45.345Z,2.50
2022-09-22T10:46:37.946Z,4.50
2022-09-22T10:50:02.791Z,1.90
2022-09-22T10:52:42.432Z,3.70
2022-09-22T10:55:30.471Z,4.80
2022-09-22T10:58:09.397Z,3.60
2022-09-22T11:00:39.927Z,4.60
2022-09-22T11:06:23.945Z,1.90
2022-09-22T11:09:23.192Z,3.80
2022-09-22T11:12:16.254Z,7.10
2022-09-22T11:14:49.541Z,15.40
2022-09-22T11:17:32.056Z,9.00
2022-09-22T11:20:26.954Z,17.90
2022-09-22T11:23:03.421Z,5.40
2022-09-22T11:25:42.656Z,3.40
2022-09-22T11:28:47.185Z,3.20
2022-09-22T11:31:31.440Z,3.30
2022-09-22T11:34:22.656Z,3.30
2022-09-22T11:37:27.293Z,3.10
2022-09-22T11:40:01.271Z,3.40
2022-09-22T11:42:38.494Z,7.40
2022-09-22T11:45:43.648Z,4.40
2022-09-22T11:48:42.845Z,2.10
2022-09-22T11:51:33.957Z,5.20
2022-09-22T11:54:04.419Z,2.10
2022-09-22T11:57:06.981Z,3.90
2022-09-22T11:59:39.765Z,2.40
2022-09-22T12:02:32.260Z,7.50
2022-09-22T12:05:02.346Z,1.90
2022-09-22T12:07:35.151Z,2.40
2022-09-22T12:10:12.728Z,1.90
2022-09-22T12:12:43.359Z,2.30
2022-09-22T12:15:21.902Z,2.90
2022-09-22T12:17:54.879Z,4.10
2022-09-22T12:20:35.045Z,8.20
2022-09-22T12:23:08.444Z,2.60
2022-09-22T12:25:48.994Z,4.30
2022-09-22T12:28:25.594Z,9.40
2022-09-22T12:31:04.533Z,2.90
2022-09-22T12:33:33.273Z,8.30
2022-09-22T12:36:00.986Z,4.30
2022-09-22T12:38:30.090Z,4.60
2022-09-22T12:40:59.300Z,7.90
2022-09-22T12:43:27.366Z,6.80
2022-09-22T12:45:55.267Z,14.00
2022-09-22T12:48:30.588Z,14.40
2022-09-22T12:51:25.908Z,11.40
2022-09-22T12:54:22.352Z,4.60
2022-09-22T12:59:37.552Z,4.50
2022-09-22T13:02:16.860Z,12.90
2022-09-22T13:04:56.655Z,27.30
2022-09-22T13:07:40.701Z,29.30
2022-09-22T13:10:24.599Z,15.20
2022-09-22T13:13:00.424Z,8.50
2022-09-22T13:15:39.551Z,7.70
2022-09-22T13:18:29.068Z,12.20
2022-09-22T13:20:57.411Z,6.40
2022-09-22T13:23:25.885Z,11.00
2022-09-22T13:25:54.996Z,13.30
2022-09-22T13:28:23.818Z,11.60
2022-09-22T13:31:16.416Z,6.90
2022-09-22T13:33:43.585Z,9.80
2022-09-22T13:36:18.731Z,4.90
2022-09-22T13:38:53.970Z,7.80
2022-09-22T13:41:23.950Z,9.00
2022-09-22T13:43:56.361Z,11.00
2022-09-22T13:46:47.678Z,11.10
2022-09-22T13:49:34.183Z,5.70
2022-09-22T13:52:04.754Z,6.40
2022-09-22T13:54:33.402Z,5.50
2022-09-22T13:57:01.015Z,7.40
2022-09-22T13:59:34.487Z,7.20
2022-09-22T14:02:11.290Z,6.10
2022-09-22T14:04:49.778Z,8.40
2022-09-22T14:07:16.433Z,11.60
2022-09-22T14:09:43.466Z,6.80
2022-09-22T14:12:11.336Z,4.80
2022-09-22T14:14:39.928Z,7.20
2022-09-22T14:17:19.262Z,3.30
2022-09-22T14:19:54.711Z,5.30
2022-09-22T14:22:24.239Z,3.00
2022-09-22T14:24:55.473Z,2.30
2022-09-22T14:27:31.939Z,7.00
2022-09-22T14:29:58.685Z,5.10
2022-09-22T14:32:32.909Z,2.80
2022-09-22T14:35:02.479Z,6.90
2022-09-22T14:37:38.759Z,5.80
2022-09-22T14:40:13.813Z,4.80
2022-09-22T14:42:41.689Z,4.80
2022-09-22T14:45:08.943Z,5.60
2022-09-22T14:47:40.032Z,4.60
2022-09-22T14:50:19.406Z,4.00
2022-09-22T14:52:55.606Z,5.30
2022-09-22T14:55:33.933Z,5.50
2022-09-22T14:58:29.051Z,6.90
2022-09-22T15:01:18.046Z,6.10
2022-09-22T15:04:02.275Z,7.60
2022-09-22T15:06:39.366Z,5.70
2022-09-22T15:09:07.897Z,8.00
2022-09-22T15:11:46.719Z,11.10
2022-09-22T15:14:32.266Z,7.20
2022-09-22T15:17:22.671Z,5.30
2022-09-22T15:19:56.535Z,5.40
2022-09-22T15:22:23.605Z,6.00
2022-09-22T15:24:50.593Z,9.00
2022-09-22T15:27:18.990Z,3.80
2022-09-22T15:29:48.078Z,5.50
2022-09-22T15:32:16.051Z,8.40
2022-09-22T15:34:44.237Z,4.30
2022-09-22T15:37:20.720Z,12.30
2022-09-22T15:39:47.671Z,9.00
2022-09-22T15:42:15.130Z,9.20
2022-09-22T15:44:43.444Z,5.10
2022-09-22T15:47:13.851Z,13.00
2022-09-22T15:52:11.053Z,7.90
2022-09-22T15:54:38.387Z,8.90
2022-09-22T15:57:06.007Z,9.00
2022-09-22T15:59:33.209Z,11.90
2022-09-22T16:02:00.670Z,14.10
2022-09-22T16:04:31.818Z,90.30
2022-09-22T16:09:27.756Z,258.60
2022-09-22T16:11:55.321Z,336.90
2022-09-22T16:14:24.830Z,447.70
2022-09-22T16:16:52.188Z,318.30
2022-09-22T16:19:19.854Z,179.50
2022-09-22T16:21:51.312Z,100.80
2022-09-22T16:24:18.466Z,50.70
2022-09-22T16:26:45.617Z,34.70
2022-09-22T16:29:12.571Z,22.10
2022-09-22T16:31:39.241Z,16.60
2022-09-22T16:34:07.352Z,14.40
2022-09-22T16:36:35.469Z,14.30
2022-09-22T16:39:02.975Z,13.10
2022-09-22T16:41:31.582Z,16.70
2022-09-22T16:43:58.962Z,24.80
2022-09-22T16:46:26.120Z,18.80
2022-09-22T16:48:59.665Z,18.20
2022-09-22T16:51:27.204Z,14.70
2022-09-22T16:53:54.360Z,14.60
2022-09-22T16:56:23.109Z,19.60
2022-09-22T16:58:50.207Z,15.50
2022-09-22T17:01:19.786Z,13.40
2022-09-22T17:03:49.132Z,14.00
2022-09-22T17:06:16.800Z,17.10
2022-09-22T17:08:45.395Z,15.40
2022-09-22T17:11:13.374Z,12.30
2022-09-22T17:13:42.826Z,7.50
2022-09-22T17:16:24.406Z,6.50
2022-09-22T17:18:52.365Z,9.20
2022-09-22T17:21:22.800Z,5.50
2022-09-22T17:23:51.899Z,7.80
2022-09-22T17:26:19.777Z,6.90
2022-09-22T17:28:47.038Z,5.10
2022-09-22T17:31:14.489Z,7.10
2022-09-22T17:33:47.886Z,6.80
2022-09-22T17:36:21.934Z,7.80
2022-09-22T17:38:52.762Z,12.40
2022-09-22T17:41:24.840Z,6.10
2022-09-22T17:43:55.174Z,6.20
2022-09-22T17:46:24.565Z,5.60
2022-09-22T17:49:09.961Z,5.70
2022-09-22T17:52:00.464Z,6.50
2022-09-22T17:54:50.662Z,7.10
2022-09-22T17:57:23.659Z,7.00
2022-09-22T17:59:51.227Z,7.20
2022-09-22T18:02:19.068Z,8.20
2022-09-22T18:04:46.766Z,7.70
2022-09-22T18:07:17.507Z,8.60
2022-09-22T18:09:46.708Z,8.00
2022-09-22T18:12:16.013Z,9.80
2022-09-22T18:14:46.653Z,8.10
2022-09-22T18:19:43.988Z,8.50
2022-09-22T18:22:20.619Z,10.50
2022-09-22T18:24:50.942Z,9.00
2022-09-22T18:29:53.036Z,10.30
2022-09-22T18:32:20.809Z,7.90
2022-09-22T18:34:50.734Z,10.30
2022-09-22T18:37:17.854Z,9.50
2022-09-22T18:39:45.360Z,8.80
2022-09-22T18:42:12.727Z,8.80
2022-09-22T18:44:40.907Z,9.20
2022-09-22T18:47:12.428Z,7.70
2022-09-22T18:52:11.861Z,6.60
2022-09-22T18:54:42.555Z,10.00
2022-09-22T18:57:13.708Z,8.90
2022-09-22T18:59:40.871Z,7.90
2022-09-22T19:02:11.792Z,11.10
2022-09-22T19:07:26.822Z,8.20
2022-09-22T19:09:54.492Z,9.10
2022-09-22T19:12:21.241Z,10.80
2022-09-22T19:14:49.635Z,9.20
2022-09-22T19:17:19.357Z,9.70
2022-09-22T19:19:48.452Z,9.60
2022-09-22T19:22:16.422Z,8.30
2022-09-22T19:24:46.848Z,8.80
2022-09-22T19:27:15.235Z,10.90
2022-09-22T19:29:42.284Z,11.40
2022-09-22T19:32:09.750Z,12.30
2022-09-22T19:34:37.417Z,16.20
2022-09-22T19:37:04.879Z,17.10
2022-09-22T19:39:32.344Z,18.60
2022-09-22T19:42:02.576Z,19.20
2022-09-22T19:44:30.163Z,13.40
2022-09-22T19:46:58.322Z,15.40
2022-09-22T19:49:25.065Z,11.60
2022-09-22T19:51:53.037Z,13.10
2022-09-22T19:54:20.507Z,15.60
2022-09-22T19:56:47.671Z,14.00
2022-09-22T19:59:19.237Z,13.30
2022-09-22T20:01:47.497Z,15.10
2022-09-22T20:04:18.896Z,16.70
2022-09-22T20:06:45.849Z,15.60
2022-09-22T20:09:12.901Z,15.50
2022-09-22T20:11:45.593Z,14.40
2022-09-22T20:14:23.092Z,17.20
2022-09-22T20:16:54.246Z,17.00
2022-09-22T20:19:21.900Z,16.10
2022-09-22T20:21:51.206Z,17.70
2022-09-22T20:24:19.406Z,15.10
2022-09-22T20:26:46.362Z,16.20
2022-09-22T20:29:16.511Z,17.70
2022-09-22T20:31:45.591Z,19.20
2022-09-22T20:34:14.495Z,15.50
2022-09-22T20:36:42.814Z,19.20
2022-09-22T20:39:13.213Z,17.90
2022-09-22T20:41:41.196Z,19.10
2022-09-22T20:44:14.091Z,20.40
2022-09-22T20:46:44.364Z,19.20
2022-09-22T20:49:14.045Z,17.30
2022-09-22T20:51:41.611Z,17.70
2022-09-22T20:54:08.868Z,17.80
2022-09-22T20:56:39.440Z,18.90
2022-09-22T20:59:09.431Z,18.80
2022-09-22T21:01:36.875Z,17.80
2022-09-22T21:04:04.466Z,20.00
2022-09-22T21:06:31.419Z,16.70
2022-09-22T21:09:17.018Z,18.50
2022-09-22T21:11:46.621Z,18.70
2022-09-22T21:14:14.904Z,19.40
2022-09-22T21:16:42.572Z,18.90
2022-09-22T21:19:09.523Z,18.20
2022-09-22T21:21:37.191Z,19.20
2022-09-22T21:24:05.479Z,18.90
2022-09-22T21:26:33.584Z,18.80
2022-09-22T21:29:01.327Z,20.60
2022-09-22T21:31:28.370Z,20.70
2022-09-22T21:33:55.429Z,23.30
2022-09-22T21:36:22.689Z,20.10
2022-09-22T21:38:54.672Z,20.50
2022-09-22T21:41:23.247Z,18.20
2022-09-22T21:43:50.303Z,19.80
2022-09-22T21:46:21.405Z,20.50
2022-09-22T21:48:48.614Z,18.70
2022-09-22T21:51:18.936Z,18.70
2022-09-22T21:53:47.940Z,19.90
2022-09-22T21:56:16.637Z,21.40
2022-09-22T21:58:47.067Z,19.60
2022-09-22T22:01:19.390Z,19.80
2022-09-22T22:03:47.752Z,19.70
2022-09-22T22:06:28.091Z,16.50
2022-09-22T22:09:04.052Z,19.10
2022-09-22T22:11:40.131Z,17.10
2022-09-22T22:14:08.790Z,16.30
2022-09-22T22:16:43.855Z,15.00
2022-09-22T22:19:12.140Z,15.80
2022-09-22T22:21:43.904Z,15.60
2022-09-22T22:24:17.827Z,15.00
2022-09-22T22:26:46.829Z,16.30
2022-09-22T22:29:13.872Z,16.10
2022-09-22T22:31:43.054Z,14.80
2022-09-22T22:34:11.368Z,13.80
2022-09-22T22:36:38.827Z,14.00
2022-09-22T22:39:05.985Z,17.10
2022-09-22T22:41:33.953Z,16.40
2022-09-22T22:44:01.931Z,14.20
2022-09-22T22:46:29.646Z,13.80
2022-09-22T22:48:57.136Z,15.30
2022-09-22T22:51:24.019Z,13.60
2022-09-22T22:53:51.421Z,12.90
2022-09-22T22:56:21.526Z,13.10
2022-09-22T22:58:50.094Z,14.60
2022-09-22T23:01:21.823Z,11.70
2022-09-22T23:03:52.721Z,13.60
2022-09-22T23:06:24.686Z,11.20
2022-09-22T23:08:52.046Z,11.10
2022-09-22T23:11:22.681Z,11.50
2022-09-22T23:16:23.140Z,10.80
2022-09-22T23:18:51.213Z,12.80
2022-09-22T23:21:20.065Z,13.00
2022-09-22T23:23:47.376Z,10.70
2022-09-22T23:26:15.040Z,10.40
2022-09-22T23:28:42.506Z,11.60
2022-09-22T23:31:11.781Z,11.40
2022-09-22T23:33:44.875Z,9.30
2022-09-22T23:36:19.338Z,10.60
2022-09-22T23:38:46.898Z,11.50
2022-09-22T23:41:14.873Z,9.00
2022-09-22T23:43:42.238Z,9.60
2022-09-22T23:46:09.728Z,9.80
2022-09-22T23:48:36.758Z,8.80
2022-09-22T23:51:03.920Z,7.20
2022-09-22T23:53:33.362Z,8.00
2022-09-22T23:56:02.037Z,7.50
2022-09-22T23:58:29.740Z,8.10
